This is the latest recevied weather packets stored in our database for station/object SQ7FJB-2. If no packets are shown the sender has not sent any weather packets the latest 10 day(s).
| Time | Temp. | Humidity | Pressure | Rain* | Wind** | Luminosity | Snow |
|---|---|---|---|---|---|---|---|
| 1778043404 | 15.56° C | 53% | 1004.1 hPa | 0 mm | - | - | - |
| 1778042791 | 14.44° C | 57% | 1004.1 hPa | 0 mm | - | - | - |
| 1778041591 | 11.11° C | 68% | 1004.2 hPa | 0 mm | - | - | - |
| 1778040979 | 10.56° C | 75% | 1004.1 hPa | 0 mm | - | - | - |
| 1778040379 | 10.56° C | 75% | 1004.1 hPa | 0 mm | - | - | - |
| 1778039778 | 8.89° C | 76% | 1004.1 hPa | 0 mm | - | - | - |
| 1778039179 | 7.22° C | 85% | 1004.1 hPa | 0 mm | - | - | - |
| 1778038566 | 6.67° C | 88% | 1004.1 hPa | 0 mm | - | - | - |
| 1778037966 | 6.11° C | 88% | 1004.1 hPa | 0 mm | - | - | - |
| 1778037366 | 6.11° C | 88% | 1004.2 hPa | 0 mm | - | - | - |
| 1778036766 | 6.67° C | 87% | 1004.3 hPa | 0 mm | - | - | - |
| 1778036154 | 6.67° C | 86% | 1004.3 hPa | 0 mm | - | - | - |
| 1778035554 | 6.67° C | 85% | 1004.3 hPa | 0 mm | - | - | - |
| 1778034941 | 6.67° C | 86% | 1004.3 hPa | 0 mm | - | - | - |
| 1778034341 | 6.67° C | 85% | 1004.3 hPa | 0 mm | - | - | - |
| 1778033728 | 6.67° C | 85% | 1004.4 hPa | 0 mm | - | - | - |
| 1778033129 | 6.67° C | 84% | 1004.4 hPa | 0 mm | - | - | - |
| 1778032528 | 7.22° C | 83% | 1004.5 hPa | 0 mm | - | - | - |
| 1778031916 | 7.78° C | 81% | 1004.5 hPa | 0 mm | - | - | - |
| 1778031316 | 7.78° C | 81% | 1004.5 hPa | 0 mm | - | - | - |
| 1778030704 | 8.33° C | 80% | 1004.5 hPa | 0 mm | - | - | - |
| 1778030091 | 7.78° C | 81% | 1004.5 hPa | 0 mm | - | - | - |
| 1778029491 | 7.78° C | 81% | 1004.7 hPa | 0 mm | - | - | - |
| 1778028891 | 7.78° C | 81% | 1004.7 hPa | 0 mm | - | - | - |
| 1778028278 | 7.78° C | 80% | 1004.7 hPa | 0 mm | - | - | - |
* Rain latest hour (hover to see other rain measurements)
** Current wind speed in m/s (hover to see current wind gust speed)